Time;durP1;ratioP1;P1;durP2;ratioP2;P2;SDS_P1;SDS_P2;PMS_P1;PMS_P2;Temp;Humidity;BMP_temperature;BMP_pressure;BME280_temperature;BME280_humidity;BME280_pressure;Samples;Min_cycle;Max_cycle;Signal;HPM_P1;HPM_P2
2023/04/15 00:00:58;;;;;;;;;2.50;1.25;;;;;;;;5068682;28;10243;-83
2023/04/15 00:03:25;;;;;;;;;2.75;2.75;;;;;;;;5069787;28;10421;-82
2023/04/15 00:05:53;;;;;;;;;3.50;2.25;;;;;;;;5080298;28;10401;-83
2023/04/15 00:08:22;;;;;;;;;1.75;1.75;;;;;;;;5068625;28;10404;-83
2023/04/15 00:10:49;;;;;;;;;4.00;2.50;;;;;;;;5069395;28;10303;-83
2023/04/15 00:13:17;;;;;;;;;2.00;2.00;;;;;;;;5081434;28;10389;-84
2023/04/15 00:15:44;;;;;;;;;2.75;1.50;;;;;;;;5081830;28;10401;-81
2023/04/15 00:18:11;;;;;;;;;4.00;2.00;;;;;;;;5088185;28;10317;-82
2023/04/15 00:20:38;;;;;;;;;3.00;3.00;;;;;;;;5088544;28;10305;-82
2023/04/15 00:23:06;;;;;;;;;3.50;3.50;;;;;;;;5086914;28;10383;-80
2023/04/15 00:25:35;;;;;;;;;5.00;4.00;;;;;;;;5077140;28;10307;-84
2023/04/15 00:28:02;;;;;;;;;3.25;3.25;;;;;;;;5068573;28;10324;-86
2023/04/15 00:30:30;;;;;;;;;4.00;4.00;;;;;;;;5079931;28;10315;-84
2023/04/15 00:32:57;;;;;;;;;3.75;3.00;;;;;;;;5086542;28;10297;-82
2023/04/15 00:35:24;;;;;;;;;2.00;2.00;;;;;;;;5088300;28;10321;-82
2023/04/15 00:37:51;;;;;;;;;2.00;2.00;;;;;;;;5069222;28;10228;-86
2023/04/15 00:40:23;;;;;;;;;2.75;2.50;;;;;;;;5081510;28;10240;-84
2023/04/15 00:42:52;;;;;;;;;1.50;1.50;;;;;;;;5075014;28;10346;-83
2023/04/15 00:45:19;;;;;;;;;3.00;3.00;;;;;;;;5092498;28;10297;-85
2023/04/15 00:47:46;;;;;;;;;3.00;2.00;;;;;;;;5083104;28;10484;-87
2023/04/15 00:50:14;;;;;;;;;1.50;1.50;;;;;;;;5082388;28;10390;-86
2023/04/15 00:52:41;;;;;;;;;1.00;1.00;;;;;;;;5079793;28;10405;-86
2023/04/15 00:55:10;;;;;;;;;2.00;2.00;;;;;;;;5071387;28;10364;-86
2023/04/15 00:57:37;;;;;;;;;1.00;1.00;;;;;;;;5069700;28;10444;-82
2023/04/15 01:00:08;;;;;;;;;1.00;1.00;;;;;;;;5070324;28;10237;-85
2023/04/15 01:02:36;;;;;;;;;1.50;1.50;;;;;;;;5067845;28;10289;-81
2023/04/15 01:05:04;;;;;;;;;1.25;1.25;;;;;;;;5071707;28;10288;-80
2023/04/15 01:07:31;;;;;;;;;0.00;0.00;;;;;;;;5068187;28;10375;-81
2023/04/15 01:09:59;;;;;;;;;2.00;2.00;;;;;;;;5069693;28;10328;-80
2023/04/15 01:12:27;;;;;;;;;2.00;2.00;;;;;;;;5073603;28;10373;-78
2023/04/15 01:14:55;;;;;;;;;2.25;2.25;;;;;;;;5073362;28;10521;-81
2023/04/15 01:17:25;;;;;;;;;2.00;2.00;;;;;;;;5072826;28;10338;-80
2023/04/15 01:19:52;;;;;;;;;2.75;2.50;;;;;;;;5072938;28;10393;-78
2023/04/15 01:22:19;;;;;;;;;2.00;2.00;;;;;;;;5068467;28;10402;-82
2023/04/15 01:24:53;;;;;;;;;3.00;3.00;;;;;;;;5071515;28;10470;-78
2023/04/15 01:27:22;;;;;;;;;2.75;2.75;;;;;;;;5064076;28;10361;-83
2023/04/15 01:29:49;;;;;;;;;3.00;3.00;;;;;;;;5076002;28;10328;-80
2023/04/15 01:32:16;;;;;;;;;2.00;2.00;;;;;;;;5071856;28;10435;-81
2023/04/15 01:34:43;;;;;;;;;3.00;3.00;;;;;;;;5080579;28;10217;-81
2023/04/15 01:37:10;;;;;;;;;3.00;3.00;;;;;;;;5071955;28;10375;-80
2023/04/15 01:39:38;;;;;;;;;3.00;3.00;;;;;;;;5075986;28;10306;-80
2023/04/15 01:42:05;;;;;;;;;3.00;3.00;;;;;;;;5076891;28;10663;-80
2023/04/15 01:44:34;;;;;;;;;3.00;3.00;;;;;;;;5077797;28;10339;-82
2023/04/15 01:47:01;;;;;;;;;4.75;3.50;;;;;;;;5073249;28;10392;-85
2023/04/15 01:49:28;;;;;;;;;4.75;4.00;;;;;;;;5075618;28;10473;-81
2023/04/15 01:51:59;;;;;;;;;2.75;2.75;;;;;;;;5071435;28;10445;-82
2023/04/15 01:54:27;;;;;;;;;3.00;3.00;;;;;;;;5075026;28;10228;-82
2023/04/15 01:56:55;;;;;;;;;5.00;3.25;;;;;;;;5074697;28;10594;-81
2023/04/15 01:59:23;;;;;;;;;4.75;3.00;;;;;;;;5071321;28;10460;-80
2023/04/15 02:01:51;;;;;;;;;5.75;4.00;;;;;;;;5071104;28;10367;-80
2023/04/15 02:04:18;;;;;;;;;4.25;4.00;;;;;;;;5071189;28;11209;-82
2023/04/15 02:06:46;;;;;;;;;3.00;3.00;;;;;;;;5085859;28;10323;-81
2023/04/15 02:09:13;;;;;;;;;3.25;3.25;;;;;;;;5090729;28;10391;-81
2023/04/15 02:11:40;;;;;;;;;4.00;4.00;;;;;;;;5077685;28;11176;-81
2023/04/15 02:14:08;;;;;;;;;4.25;3.75;;;;;;;;5082430;28;10386;-81
2023/04/15 02:16:35;;;;;;;;;6.00;4.00;;;;;;;;5071466;28;10509;-82
2023/04/15 02:19:04;;;;;;;;;3.50;3.50;;;;;;;;5070284;28;10448;-84
2023/04/15 02:21:31;;;;;;;;;4.25;4.25;;;;;;;;5074681;28;11180;-87
2023/04/15 02:23:58;;;;;;;;;3.25;3.25;;;;;;;;5085347;28;10505;-83
2023/04/15 02:26:25;;;;;;;;;4.00;4.00;;;;;;;;5077209;28;10378;-80
2023/04/15 02:28:52;;;;;;;;;3.25;3.25;;;;;;;;5079426;28;10321;-83
2023/04/15 02:31:20;;;;;;;;;2.00;2.00;;;;;;;;5072329;28;10445;-84
2023/04/15 02:33:47;;;;;;;;;3.00;3.00;;;;;;;;5071033;28;10208;-85
2023/04/15 02:36:16;;;;;;;;;5.00;3.50;;;;;;;;5082045;28;11175;-86
2023/04/15 02:38:43;;;;;;;;;3.00;3.00;;;;;;;;5073207;28;10423;-84
2023/04/15 02:41:10;;;;;;;;;2.00;2.00;;;;;;;;5074095;28;10418;-86
2023/04/15 02:43:38;;;;;;;;;3.00;3.00;;;;;;;;5079873;28;10346;-87
2023/04/15 02:46:06;;;;;;;;;3.50;2.00;;;;;;;;5090145;28;10232;-83
2023/04/15 02:48:33;;;;;;;;;3.00;3.00;;;;;;;;5075888;28;10354;-81
2023/04/15 02:51:16;;;;;;;;;2.00;2.00;;;;;;;;5075516;28;10289;-82
2023/04/15 02:53:43;;;;;;;;;3.00;3.00;;;;;;;;5070104;28;10442;-80
2023/04/15 02:56:11;;;;;;;;;3.00;3.00;;;;;;;;5090048;28;10324;-83
2023/04/15 02:58:39;;;;;;;;;2.75;2.75;;;;;;;;5075699;28;10936;-81
2023/04/15 03:01:06;;;;;;;;;2.00;2.00;;;;;;;;5088105;28;10183;-83
2023/04/15 03:03:33;;;;;;;;;2.00;2.00;;;;;;;;5084941;28;10293;-80
2023/04/15 03:06:00;;;;;;;;;2.00;2.00;;;;;;;;5078405;28;10222;-84
2023/04/15 03:08:29;;;;;;;;;3.00;2.00;;;;;;;;5086127;28;11087;-82
2023/04/15 03:10:59;;;;;;;;;1.75;1.75;;;;;;;;5089539;28;10176;-79
2023/04/15 03:13:26;;;;;;;;;4.75;4.75;;;;;;;;5083144;28;10289;-80
2023/04/15 03:15:54;;;;;;;;;13.50;13.25;;;;;;;;5070136;28;10275;-80
2023/04/15 03:18:22;;;;;;;;;9.25;9.25;;;;;;;;5072820;28;11383;-80
2023/04/15 03:20:49;;;;;;;;;4.00;4.00;;;;;;;;5088625;28;10557;-82
2023/04/15 03:23:16;;;;;;;;;2.00;2.00;;;;;;;;5085332;28;10240;-82
2023/04/15 03:25:45;;;;;;;;;2.00;2.00;;;;;;;;5076806;28;10669;-81
2023/04/15 03:28:12;;;;;;;;;2.25;2.00;;;;;;;;5069000;28;10113;-81
2023/04/15 03:30:39;;;;;;;;;3.00;3.00;;;;;;;;5078503;28;10084;-81
2023/04/15 03:33:07;;;;;;;;;4.50;2.75;;;;;;;;5083300;28;10258;-82
2023/04/15 03:35:34;;;;;;;;;2.50;2.50;;;;;;;;5069856;28;10159;-81
2023/04/15 03:38:01;;;;;;;;;2.00;2.00;;;;;;;;5074028;28;10290;-80
2023/04/15 03:40:29;;;;;;;;;5.00;5.00;;;;;;;;5080934;28;10246;-81
2023/04/15 03:42:57;;;;;;;;;8.00;6.00;;;;;;;;5069108;28;10315;-80
2023/04/15 03:45:25;;;;;;;;;3.50;3.50;;;;;;;;5070580;28;10641;-81
2023/04/15 03:47:52;;;;;;;;;6.00;6.00;;;;;;;;5069775;28;10401;-81
2023/04/15 03:50:19;;;;;;;;;4.75;4.75;;;;;;;;5068698;28;10612;-81
2023/04/15 03:52:47;;;;;;;;;3.25;2.00;;;;;;;;5068169;28;10397;-81
2023/04/15 03:55:14;;;;;;;;;5.00;5.00;;;;;;;;5067687;28;10454;-81
2023/04/15 03:57:41;;;;;;;;;9.25;9.25;;;;;;;;5068166;28;10448;-80
2023/04/15 04:00:11;;;;;;;;;2.75;2.75;;;;;;;;5070095;28;10770;-81
2023/04/15 04:02:38;;;;;;;;;6.00;5.00;;;;;;;;5067612;28;10502;-81
2023/04/15 04:05:06;;;;;;;;;2.00;2.00;;;;;;;;5070922;28;10638;-80
2023/04/15 04:07:33;;;;;;;;;6.25;5.00;;;;;;;;5069729;28;10180;-79
2023/04/15 04:10:00;;;;;;;;;10.00;10.00;;;;;;;;5069312;28;10236;-81
2023/04/15 04:12:27;;;;;;;;;7.00;7.00;;;;;;;;5071748;28;10672;-83
2023/04/15 04:14:55;;;;;;;;;19.00;17.75;;;;;;;;5074685;28;10529;-83
2023/04/15 04:17:24;;;;;;;;;17.00;16.00;;;;;;;;5072793;28;10709;-86
2023/04/15 04:19:51;;;;;;;;;7.00;5.50;;;;;;;;5073720;28;11020;-85
2023/04/15 04:22:18;;;;;;;;;4.00;4.00;;;;;;;;5072842;28;10601;-85
2023/04/15 04:24:45;;;;;;;;;4.00;4.00;;;;;;;;5073402;28;11160;-85
2023/04/15 04:27:12;;;;;;;;;6.00;6.00;;;;;;;;5069324;28;10363;-85
2023/04/15 04:29:40;;;;;;;;;10.75;10.75;;;;;;;;5068760;28;10384;-84
2023/04/15 04:32:07;;;;;;;;;8.00;8.00;;;;;;;;5077946;28;10921;-84
2023/04/15 04:34:36;;;;;;;;;7.75;7.75;;;;;;;;5087759;28;10545;-86
2023/04/15 04:37:03;;;;;;;;;9.00;6.50;;;;;;;;5081971;28;10573;-86
2023/04/15 04:39:30;;;;;;;;;16.25;11.75;;;;;;;;5077717;28;10395;-87
2023/04/15 04:41:57;;;;;;;;;15.50;12.75;;;;;;;;5072126;28;10474;-85
2023/04/15 04:44:29;;;;;;;;;15.50;15.50;;;;;;;;5080509;28;10810;-79
2023/04/15 04:46:57;;;;;;;;;12.25;12.25;;;;;;;;5067764;28;10686;-82
2023/04/15 04:49:24;;;;;;;;;5.50;5.50;;;;;;;;5072712;28;10677;-82
2023/04/15 04:51:53;;;;;;;;;4.00;4.00;;;;;;;;5079892;28;10465;-81
2023/04/15 04:54:20;;;;;;;;;6.00;4.25;;;;;;;;5068335;28;11320;-80
2023/04/15 04:56:47;;;;;;;;;5.75;5.75;;;;;;;;5079773;28;10395;-81
2023/04/15 04:59:14;;;;;;;;;9.50;5.00;;;;;;;;5081327;28;11319;-76
2023/04/15 05:01:41;;;;;;;;;9.75;9.75;;;;;;;;5066551;28;10483;-70
2023/04/15 05:04:09;;;;;;;;;10.00;10.00;;;;;;;;5068265;28;10612;-71
2023/04/15 05:06:38;;;;;;;;;18.00;16.00;;;;;;;;5067858;28;11439;-71
2023/04/15 05:09:10;;;;;;;;;13.00;12.00;;;;;;;;5072236;28;10816;-71
2023/04/15 05:11:37;;;;;;;;;8.00;8.00;;;;;;;;5071388;28;10633;-71
2023/04/15 05:14:04;;;;;;;;;4.00;4.00;;;;;;;;5079042;28;10623;-71
2023/04/15 05:16:31;;;;;;;;;12.00;10.00;;;;;;;;5072700;28;10545;-70
2023/04/15 05:18:58;;;;;;;;;11.75;11.75;;;;;;;;5071413;28;10634;-73
2023/04/15 05:21:26;;;;;;;;;14.00;12.50;;;;;;;;5070235;28;10676;-72
2023/04/15 05:23:53;;;;;;;;;9.75;7.25;;;;;;;;5071967;28;10718;-71
2023/04/15 05:26:23;;;;;;;;;8.25;8.25;;;;;;;;5072353;28;10572;-71
2023/04/15 05:28:50;;;;;;;;;9.00;9.00;;;;;;;;5089837;28;10618;-70
2023/04/15 05:31:17;;;;;;;;;10.75;10.75;;;;;;;;5085289;28;10516;-70
2023/04/15 05:33:44;;;;;;;;;5.75;5.75;;;;;;;;5079699;28;10708;-73
2023/04/15 05:36:12;;;;;;;;;4.50;4.50;;;;;;;;5087943;28;10588;-70
2023/04/15 05:38:39;;;;;;;;;6.75;6.75;;;;;;;;5089755;28;10531;-72
2023/04/15 05:41:06;;;;;;;;;6.25;4.75;;;;;;;;5075328;28;11208;-72
2023/04/15 05:43:34;;;;;;;;;6.25;6.00;;;;;;;;5077396;28;11359;-70
2023/04/15 05:46:02;;;;;;;;;8.00;5.00;;;;;;;;5069968;28;10782;-70
2023/04/15 05:48:29;;;;;;;;;9.50;7.50;;;;;;;;5079864;28;11489;-70
2023/04/15 05:50:56;;;;;;;;;9.75;9.75;;;;;;;;5087113;28;10732;-71
2023/04/15 05:53:23;;;;;;;;;5.00;5.00;;;;;;;;5088802;28;10731;-70
2023/04/15 05:55:51;;;;;;;;;5.50;5.50;;;;;;;;5083235;28;10752;-69
2023/04/15 05:58:18;;;;;;;;;6.00;6.00;;;;;;;;5080536;28;10610;-70
2023/04/15 06:00:46;;;;;;;;;5.00;5.00;;;;;;;;5074555;28;10539;-70
2023/04/15 06:03:14;;;;;;;;;5.00;5.00;;;;;;;;5089090;28;10839;-71
2023/04/15 06:05:41;;;;;;;;;11.00;11.00;;;;;;;;5087104;28;10938;-72
2023/04/15 06:08:08;;;;;;;;;5.00;5.00;;;;;;;;5077519;28;11657;-72
2023/04/15 06:10:36;;;;;;;;;8.50;8.50;;;;;;;;5069698;28;10941;-70
2023/04/15 06:13:03;;;;;;;;;6.00;6.00;;;;;;;;5082129;28;10893;-74
2023/04/15 06:15:30;;;;;;;;;7.25;6.00;;;;;;;;5073934;28;10816;-73
2023/04/15 06:17:59;;;;;;;;;7.50;7.50;;;;;;;;5071833;28;10747;-76
2023/04/15 06:20:26;;;;;;;;;8.00;8.00;;;;;;;;5070439;28;10727;-70
2023/04/15 06:22:54;;;;;;;;;5.25;5.25;;;;;;;;5071218;28;10867;-77
2023/04/15 06:25:21;;;;;;;;;4.25;4.25;;;;;;;;5070788;28;10755;-74
2023/04/15 06:27:48;;;;;;;;;5.00;5.00;;;;;;;;5071305;28;10512;-70
2023/04/15 06:30:15;;;;;;;;;4.00;4.00;;;;;;;;5059304;28;10678;-70
2023/04/15 06:32:43;;;;;;;;;5.00;5.00;;;;;;;;5070562;28;10704;-74
2023/04/15 06:35:11;;;;;;;;;3.00;3.00;;;;;;;;5079807;28;10754;-70
2023/04/15 06:37:38;;;;;;;;;4.00;3.00;;;;;;;;5076224;28;10781;-70
2023/04/15 06:40:07;;;;;;;;;8.75;8.75;;;;;;;;5076386;28;10438;-72
2023/04/15 06:42:35;;;;;;;;;5.25;5.25;;;;;;;;5075085;28;10887;-69
2023/04/15 06:45:03;;;;;;;;;4.00;4.00;;;;;;;;5069709;28;10655;-70
2023/04/15 06:47:31;;;;;;;;;8.75;7.00;;;;;;;;5073058;28;10681;-71
2023/04/15 06:49:58;;;;;;;;;13.75;10.25;;;;;;;;5074019;28;10664;-72
2023/04/15 06:52:28;;;;;;;;;5.25;5.25;;;;;;;;5070626;28;11483;-70
2023/04/15 06:54:56;;;;;;;;;10.25;9.25;;;;;;;;5070153;28;10687;-69
2023/04/15 06:57:23;;;;;;;;;12.00;10.00;;;;;;;;5071408;28;10738;-71
2023/04/15 06:59:51;;;;;;;;;9.75;9.75;;;;;;;;5072147;28;10906;-69
2023/04/15 07:02:18;;;;;;;;;8.00;3.00;;;;;;;;5074158;28;10715;-71
2023/04/15 07:04:46;;;;;;;;;10.50;10.50;;;;;;;;5059157;28;10754;-70
2023/04/15 07:07:14;;;;;;;;;13.50;13.50;;;;;;;;5071644;28;10688;-72
2023/04/15 07:09:46;;;;;;;;;5.00;5.00;;;;;;;;5069033;28;10888;-70
2023/04/15 07:12:13;;;;;;;;;4.00;4.00;;;;;;;;5070558;28;10658;-71
2023/04/15 07:14:41;;;;;;;;;10.00;10.00;;;;;;;;5070594;28;10886;-73
2023/04/15 07:17:10;;;;;;;;;8.50;8.50;;;;;;;;5071651;28;11460;-72
2023/04/15 07:19:37;;;;;;;;;10.00;10.00;;;;;;;;5068441;28;11742;-72
2023/04/15 07:22:07;;;;;;;;;11.75;10.25;;;;;;;;5070325;28;11585;-70
2023/04/15 07:24:36;;;;;;;;;10.50;10.50;;;;;;;;5070542;28;10773;-70
2023/04/15 07:27:05;;;;;;;;;12.25;12.25;;;;;;;;5056646;28;11579;-69
2023/04/15 07:29:32;;;;;;;;;20.75;20.75;;;;;;;;5067748;28;10850;-70
2023/04/15 07:31:59;;;;;;;;;22.00;19.75;;;;;;;;5086703;28;10931;-71
2023/04/15 07:34:27;;;;;;;;;10.75;10.75;;;;;;;;5072871;28;10890;-72
2023/04/15 07:36:54;;;;;;;;;17.50;15.50;;;;;;;;5075916;28;10586;-72
2023/04/15 07:39:22;;;;;;;;;20.75;17.75;;;;;;;;5084388;28;10732;-72
2023/04/15 07:41:49;;;;;;;;;25.00;24.00;;;;;;;;5076377;28;11006;-72
2023/04/15 07:44:17;;;;;;;;;20.00;16.75;;;;;;;;5082782;28;11215;-70
2023/04/15 07:46:46;;;;;;;;;12.25;12.25;;;;;;;;5078671;28;10757;-70
2023/04/15 07:49:13;;;;;;;;;14.75;12.75;;;;;;;;5069587;28;10724;-70
2023/04/15 07:51:40;;;;;;;;;10.00;10.00;;;;;;;;5086685;28;10732;-69
2023/04/15 07:54:07;;;;;;;;;9.00;9.00;;;;;;;;5073499;28;10298;-70
2023/04/15 07:56:35;;;;;;;;;22.50;19.50;;;;;;;;5077376;28;10448;-69
2023/04/15 07:59:03;;;;;;;;;9.75;9.75;;;;;;;;5082898;28;10740;-70
2023/04/15 08:01:32;;;;;;;;;12.50;12.50;;;;;;;;5076902;28;10336;-71
2023/04/15 08:04:00;;;;;;;;;12.00;12.00;;;;;;;;5083448;28;10408;-69
2023/04/15 08:06:27;;;;;;;;;8.00;8.00;;;;;;;;5076187;28;10392;-72
2023/04/15 08:08:55;;;;;;;;;7.50;7.50;;;;;;;;5084135;28;10265;-72
2023/04/15 08:11:23;;;;;;;;;7.75;7.75;;;;;;;;5075646;28;10244;-72
2023/04/15 08:13:50;;;;;;;;;9.50;9.50;;;;;;;;5083769;28;10147;-75
2023/04/15 08:16:19;;;;;;;;;9.75;9.75;;;;;;;;5076029;28;11223;-73
2023/04/15 08:18:49;;;;;;;;;11.25;11.25;;;;;;;;5069925;28;10390;-76
2023/04/15 08:21:17;;;;;;;;;13.00;13.00;;;;;;;;5070781;28;10401;-70
2023/04/15 08:23:45;;;;;;;;;10.00;10.00;;;;;;;;5073615;28;10556;-75
2023/04/15 08:26:14;;;;;;;;;9.50;9.50;;;;;;;;5071896;28;10738;-71
2023/04/15 08:28:42;;;;;;;;;11.75;11.75;;;;;;;;5074976;28;10235;-71
2023/04/15 08:31:10;;;;;;;;;10.75;10.75;;;;;;;;5082255;28;10215;-76
2023/04/15 08:33:37;;;;;;;;;17.50;13.25;;;;;;;;5066925;28;10415;-74
2023/04/15 08:36:06;;;;;;;;;12.75;12.75;;;;;;;;5067260;28;10232;-74
2023/04/15 08:38:34;;;;;;;;;15.00;15.00;;;;;;;;5075392;28;10234;-72
2023/04/15 08:41:05;;;;;;;;;10.75;8.00;;;;;;;;5083994;28;10421;-71
2023/04/15 08:43:35;;;;;;;;;14.00;14.00;;;;;;;;5075994;28;10106;-72
2023/04/15 08:46:03;;;;;;;;;14.25;12.75;;;;;;;;5084158;28;10098;-71
2023/04/15 08:48:33;;;;;;;;;15.00;14.00;;;;;;;;5086157;28;10237;-73
2023/04/15 08:51:00;;;;;;;;;13.25;13.25;;;;;;;;5083759;28;10084;-75
2023/04/15 08:53:30;;;;;;;;;15.25;15.25;;;;;;;;5075681;28;10174;-72
2023/04/15 08:55:58;;;;;;;;;14.00;14.00;;;;;;;;5082490;28;10136;-73
2023/04/15 08:58:26;;;;;;;;;19.00;16.75;;;;;;;;5074904;28;10198;-74
2023/04/15 09:00:53;;;;;;;;;14.75;14.75;;;;;;;;5083193;28;10221;-71
2023/04/15 09:03:22;;;;;;;;;16.50;14.00;;;;;;;;5073625;28;10112;-72
2023/04/15 09:05:51;;;;;;;;;16.00;13.25;;;;;;;;5077832;28;10298;-74
2023/04/15 09:08:18;;;;;;;;;17.25;15.75;;;;;;;;5078265;28;10036;-72
2023/04/15 09:10:47;;;;;;;;;14.75;14.75;;;;;;;;5083833;28;10164;-71
2023/04/15 09:13:14;;;;;;;;;14.00;14.00;;;;;;;;5072328;28;9997;-72
2023/04/15 09:15:41;;;;;;;;;14.00;14.00;;;;;;;;5084335;28;10106;-72
2023/04/15 09:18:12;;;;;;;;;17.50;17.50;;;;;;;;5071959;28;9977;-74
2023/04/15 09:20:41;;;;;;;;;15.25;15.25;;;;;;;;5056418;28;9866;-71
2023/04/15 09:23:16;;;;;;;;;16.25;16.25;;;;;;;;5067304;28;9914;-71
2023/04/15 09:25:43;;;;;;;;;31.75;27.00;;;;;;;;5076330;28;9853;-71
2023/04/15 09:28:12;;;;;;;;;21.00;21.00;;;;;;;;5082349;28;10198;-71
2023/04/15 09:30:39;;;;;;;;;15.50;15.50;;;;;;;;5085613;28;10028;-72
2023/04/15 09:33:09;;;;;;;;;15.00;14.25;;;;;;;;5072102;28;9830;-73
2023/04/15 09:35:37;;;;;;;;;17.00;14.00;;;;;;;;5074945;28;9790;-71
2023/04/15 09:38:06;;;;;;;;;17.00;15.00;;;;;;;;5079355;28;9793;-69
2023/04/15 09:40:34;;;;;;;;;12.75;12.75;;;;;;;;5068421;28;9774;-69
2023/04/15 09:43:02;;;;;;;;;21.50;21.00;;;;;;;;5077705;28;9936;-69
2023/04/15 09:45:31;;;;;;;;;16.50;16.50;;;;;;;;5067373;28;9865;-70
2023/04/15 09:47:59;;;;;;;;;12.75;10.75;;;;;;;;5066717;28;9851;-70
2023/04/15 09:50:29;;;;;;;;;21.50;20.25;;;;;;;;5067462;28;9619;-70
2023/04/15 09:52:56;;;;;;;;;11.75;11.75;;;;;;;;5055048;28;9765;-71
2023/04/15 09:55:24;;;;;;;;;11.00;11.00;;;;;;;;5083469;28;9858;-73
2023/04/15 09:57:51;;;;;;;;;11.00;11.00;;;;;;;;5078408;28;9618;-69
2023/04/15 10:00:18;;;;;;;;;13.00;11.25;;;;;;;;5076136;28;9659;-70
2023/04/15 10:02:48;;;;;;;;;11.00;11.00;;;;;;;;5083186;28;9618;-72
2023/04/15 10:05:16;;;;;;;;;11.25;7.75;;;;;;;;5071311;28;9674;-71
2023/04/15 10:07:44;;;;;;;;;8.00;8.00;;;;;;;;5071549;28;9648;-68
2023/04/15 10:10:12;;;;;;;;;11.25;10.00;;;;;;;;5085118;28;9544;-70
2023/04/15 10:12:44;;;;;;;;;12.75;10.75;;;;;;;;5082288;28;9660;-70
2023/04/15 10:15:16;;;;;;;;;11.75;11.00;;;;;;;;5073937;28;9801;-76
2023/04/15 10:17:46;;;;;;;;;15.50;13.75;;;;;;;;5080925;28;10274;-74
2023/04/15 10:20:14;;;;;;;;;15.67;12.67;;;;;;;;5084946;28;9531;-75
2023/04/15 10:22:42;;;;;;;;;8.00;5.67;;;;;;;;5083173;28;9347;-71
2023/04/15 10:25:10;;;;;;;;;14.00;12.33;;;;;;;;5078098;28;9353;-78
2023/04/15 10:27:39;;;;;;;;;6.33;6.33;;;;;;;;5071201;28;9175;-77
2023/04/15 10:30:08;;;;;;;;;13.67;13.67;;;;;;;;5072046;28;8926;-78
2023/04/15 10:32:35;;;;;;;;;9.67;9.33;;;;;;;;5070860;28;9132;-74
2023/04/15 10:35:06;;;;;;;;;9.33;9.33;;;;;;;;5071001;28;9037;-71
2023/04/15 10:37:35;;;;;;;;;4.25;4.00;;;;;;;;5069381;28;8954;-72
2023/04/15 10:40:26;;;;;;;;;8.00;8.00;;;;;;;;5069529;28;8851;-73
2023/04/15 10:42:54;;;;;;;;;9.33;9.33;;;;;;;;5070486;28;8843;-74
2023/04/15 10:45:22;;;;;;;;;6.00;6.00;;;;;;;;5070464;28;9161;-73
2023/04/15 10:47:54;;;;;;;;;7.33;7.33;;;;;;;;5070100;28;9165;-72
2023/04/15 10:50:22;;;;;;;;;13.00;10.67;;;;;;;;5069363;28;9005;-76
2023/04/15 10:52:52;;;;;;;;;11.00;6.67;;;;;;;;5069664;28;9093;-72
2023/04/15 10:55:26;;;;;;;;;13.33;13.33;;;;;;;;5070351;28;9014;-72
2023/04/15 10:57:54;;;;;;;;;8.00;8.00;;;;;;;;5070200;28;9084;-72
2023/04/15 11:00:25;;;;;;;;;8.33;8.33;;;;;;;;5069328;28;9012;-71
2023/04/15 11:02:54;;;;;;;;;12.67;12.00;;;;;;;;5070232;28;9730;-76
2023/04/15 11:05:44;;;;;;;;;10.67;10.00;;;;;;;;5069417;28;9321;-73
2023/04/15 11:08:14;;;;;;;;;9.33;9.33;;;;;;;;5070230;28;9077;-75
2023/04/15 11:10:56;;;;;;;;;13.67;10.33;;;;;;;;5069396;28;9072;-74
2023/04/15 11:13:27;;;;;;;;;10.00;10.00;;;;;;;;5067388;28;9131;-75
2023/04/15 11:16:00;;;;;;;;;11.00;8.00;;;;;;;;5057682;28;9063;-74
2023/04/15 11:18:32;;;;;;;;;13.67;13.67;;;;;;;;5070542;28;9067;-75
2023/04/15 11:21:02;;;;;;;;;19.00;19.00;;;;;;;;5069667;28;9169;-76
2023/04/15 11:23:33;;;;;;;;;12.33;11.00;;;;;;;;5070001;28;9600;-75
2023/04/15 11:26:01;;;;;;;;;16.00;14.00;;;;;;;;5069296;28;9232;-73
2023/04/15 11:28:30;;;;;;;;;17.00;17.00;;;;;;;;5086725;28;9305;-73
2023/04/15 11:30:58;;;;;;;;;17.00;17.00;;;;;;;;5075111;28;9536;-76
2023/04/15 11:33:26;;;;;;;;;8.00;8.00;;;;;;;;5069278;28;9574;-77
2023/04/15 11:35:54;;;;;;;;;12.67;10.33;;;;;;;;5080967;28;9358;-77
2023/04/15 11:38:22;;;;;;;;;13.67;13.67;;;;;;;;5068561;28;9323;-78
2023/04/15 11:40:52;;;;;;;;;25.50;23.75;;;;;;;;5068558;28;9421;-73
2023/04/15 11:43:20;;;;;;;;;9.00;9.00;;;;;;;;5085383;28;9622;-72
2023/04/15 11:45:52;;;;;;;;;23.25;23.25;;;;;;;;5073243;28;9564;-77
2023/04/15 11:48:20;;;;;;;;;12.67;12.67;;;;;;;;5077828;28;9878;-76
2023/04/15 11:50:52;;;;;;;;;12.00;12.00;;;;;;;;5070411;28;9387;-76
2023/04/15 11:53:19;;;;;;;;;9.67;9.67;;;;;;;;5087686;28;9341;-72
2023/04/15 11:55:48;;;;;;;;;13.00;12.00;;;;;;;;5073238;28;9321;-75
2023/04/15 11:58:18;;;;;;;;;16.75;15.50;;;;;;;;5089399;28;9415;-77
2023/04/15 12:00:51;;;;;;;;;11.00;11.00;;;;;;;;5086350;28;10268;-78
2023/04/15 12:03:23;;;;;;;;;13.00;10.67;;;;;;;;5077403;28;9397;-80
2023/04/15 12:06:15;;;;;;;;;10.00;10.00;;;;;;;;5075938;28;9872;-80
2023/04/15 12:09:08;;;;;;;;;13.33;13.33;;;;;;;;5067877;28;10310;-79
2023/04/15 12:11:40;;;;;;;;;13.00;12.00;;;;;;;;5069653;28;9516;-77
2023/04/15 12:14:11;;;;;;;;;15.00;15.00;;;;;;;;5068651;28;10169;-78
2023/04/15 12:16:41;;;;;;;;;15.00;14.67;;;;;;;;5070417;28;9430;-76
2023/04/15 12:19:11;;;;;;;;;9.67;7.33;;;;;;;;5078237;28;9385;-74
2023/04/15 12:21:40;;;;;;;;;8.00;8.00;;;;;;;;5067715;28;9101;-75
2023/04/15 12:24:08;;;;;;;;;10.67;10.67;;;;;;;;5075047;28;8883;-74
2023/04/15 12:26:38;;;;;;;;;14.00;14.00;;;;;;;;5067994;28;9050;-74
2023/04/15 12:29:08;;;;;;;;;8.00;8.00;;;;;;;;5068649;28;8940;-74
2023/04/15 12:31:36;;;;;;;;;14.33;13.00;;;;;;;;5067728;28;8930;-78
2023/04/15 12:34:07;;;;;;;;;9.50;7.50;;;;;;;;5078884;28;9029;-72
2023/04/15 12:36:36;;;;;;;;;7.50;7.50;;;;;;;;5073612;28;9689;-74
2023/04/15 12:39:04;;;;;;;;;10.50;8.00;;;;;;;;5078319;28;8851;-76
2023/04/15 12:41:31;;;;;;;;;12.25;10.00;;;;;;;;5084232;28;8866;-74
2023/04/15 12:43:59;;;;;;;;;7.00;7.00;;;;;;;;5082910;28;8872;-75
2023/04/15 12:46:27;;;;;;;;;9.00;7.50;;;;;;;;5068139;28;8886;-78
2023/04/15 12:48:55;;;;;;;;;7.50;7.50;;;;;;;;5068415;28;8866;-73
2023/04/15 12:51:22;;;;;;;;;7.75;4.50;;;;;;;;5067733;28;8850;-75
2023/04/15 12:53:51;;;;;;;;;6.00;6.00;;;;;;;;5075417;28;8928;-73
2023/04/15 12:56:18;;;;;;;;;9.00;9.00;;;;;;;;5074717;28;9006;-73
2023/04/15 12:58:45;;;;;;;;;8.50;7.50;;;;;;;;5076136;28;8863;-74
2023/04/15 13:01:13;;;;;;;;;5.50;5.50;;;;;;;;5074609;28;8811;-74
2023/04/15 13:03:41;;;;;;;;;6.25;6.25;;;;;;;;5067044;28;8866;-73
2023/04/15 13:06:08;;;;;;;;;5.00;5.00;;;;;;;;5075153;28;8844;-72
2023/04/15 13:08:37;;;;;;;;;7.25;5.75;;;;;;;;5063336;28;8843;-72
2023/04/15 13:11:04;;;;;;;;;4.75;4.75;;;;;;;;5074467;28;8868;-76
2023/04/15 13:13:31;;;;;;;;;7.25;5.50;;;;;;;;5076976;28;8880;-74
2023/04/15 13:15:59;;;;;;;;;5.00;5.00;;;;;;;;5072788;28;8994;-73
2023/04/15 13:18:26;;;;;;;;;5.00;4.00;;;;;;;;5070157;28;8886;-71
2023/04/15 13:20:56;;;;;;;;;7.25;7.25;;;;;;;;5078862;28;8920;-72
2023/04/15 13:23:23;;;;;;;;;7.00;5.00;;;;;;;;5078026;28;8848;-73
2023/04/15 13:25:51;;;;;;;;;7.50;7.50;;;;;;;;5071517;28;9148;-70
2023/04/15 13:28:18;;;;;;;;;5.25;5.25;;;;;;;;5081004;28;8882;-71
2023/04/15 13:30:47;;;;;;;;;5.75;5.75;;;;;;;;5072560;28;8868;-73
2023/04/15 13:33:17;;;;;;;;;7.75;6.25;;;;;;;;5071729;28;8892;-75
2023/04/15 13:35:47;;;;;;;;;7.00;7.00;;;;;;;;5072298;28;8858;-78
2023/04/15 13:38:15;;;;;;;;;8.25;7.25;;;;;;;;5072279;28;8835;-77
2023/04/15 13:40:43;;;;;;;;;7.25;7.25;;;;;;;;5072085;28;8847;-77
2023/04/15 13:43:10;;;;;;;;;7.25;7.25;;;;;;;;5071305;28;8842;-80
2023/04/15 13:45:37;;;;;;;;;5.50;4.25;;;;;;;;5084063;28;8891;-75
2023/04/15 13:48:05;;;;;;;;;11.00;11.00;;;;;;;;5077763;28;8848;-79
2023/04/15 13:50:32;;;;;;;;;9.25;9.25;;;;;;;;5090541;28;8898;-75
2023/04/15 13:52:59;;;;;;;;;8.00;8.00;;;;;;;;5073045;28;9001;-77
2023/04/15 13:55:28;;;;;;;;;6.50;6.50;;;;;;;;5079349;28;8919;-74
2023/04/15 13:57:56;;;;;;;;;8.50;8.00;;;;;;;;5072689;28;8874;-76
2023/04/15 14:00:23;;;;;;;;;7.75;7.75;;;;;;;;5074481;28;8858;-71
2023/04/15 14:02:51;;;;;;;;;11.00;11.00;;;;;;;;5070355;28;10089;-71
2023/04/15 14:05:18;;;;;;;;;6.00;6.00;;;;;;;;5075146;28;8870;-74
2023/04/15 14:07:45;;;;;;;;;11.25;9.00;;;;;;;;5070646;28;8854;-72
2023/04/15 14:10:12;;;;;;;;;11.00;10.00;;;;;;;;5071939;28;8851;-71
2023/04/15 14:12:41;;;;;;;;;8.25;8.25;;;;;;;;5069845;28;8932;-72
2023/04/15 14:15:09;;;;;;;;;12.00;11.00;;;;;;;;5071687;28;9712;-73
2023/04/15 14:17:37;;;;;;;;;12.50;12.00;;;;;;;;5070492;28;8854;-72
2023/04/15 14:20:08;;;;;;;;;12.00;12.00;;;;;;;;5084238;28;8838;-73
2023/04/15 14:22:35;;;;;;;;;12.25;12.25;;;;;;;;5089385;28;8836;-71
2023/04/15 14:25:02;;;;;;;;;12.00;12.00;;;;;;;;5072776;28;8981;-70
2023/04/15 14:27:30;;;;;;;;;13.00;12.00;;;;;;;;5081523;28;8844;-74
2023/04/15 14:29:58;;;;;;;;;13.75;11.00;;;;;;;;5076706;28;8940;-71
2023/04/15 14:32:26;;;;;;;;;11.75;11.75;;;;;;;;5089110;28;8844;-71
2023/04/15 14:34:54;;;;;;;;;12.00;11.25;;;;;;;;5083414;28;9671;-70
2023/04/15 14:37:21;;;;;;;;;15.25;15.25;;;;;;;;5081342;28;9306;-72
2023/04/15 14:39:48;;;;;;;;;18.00;15.50;;;;;;;;5074355;28;8848;-73
2023/04/15 14:42:15;;;;;;;;;14.00;13.25;;;;;;;;5080654;28;9795;-71
2023/04/15 14:44:44;;;;;;;;;15.00;14.25;;;;;;;;5070441;28;8975;-73